sensor_id;sensor_type;location;lat;lon;timestamp;pressure;altitude;pressure_sealevel;temperature;humidity
67740;BME280;54536;50.090;14.420;2022-12-26T00:00:58;99359.31;;;9.30;63.28
67740;BME280;54536;50.090;14.420;2022-12-26T00:03:40;99372.03;;;9.34;62.91
67740;BME280;54536;50.090;14.420;2022-12-26T00:06:19;99366.78;;;9.34;63.12
67740;BME280;54536;50.090;14.420;2022-12-26T00:08:46;99382.88;;;9.20;63.28
67740;BME280;54536;50.090;14.420;2022-12-26T00:11:14;99390.19;;;9.05;64.05
67740;BME280;54536;50.090;14.420;2022-12-26T00:13:42;99390.72;;;8.99;64.52
67740;BME280;54536;50.090;14.420;2022-12-26T00:16:17;99393.53;;;9.28;63.51
67740;BME280;54536;50.090;14.420;2022-12-26T00:18:45;99392.28;;;9.23;63.41
67740;BME280;54536;50.090;14.420;2022-12-26T00:21:13;99388.75;;;9.33;64.18
67740;BME280;54536;50.090;14.420;2022-12-26T00:23:59;99385.22;;;9.44;62.94
67740;BME280;54536;50.090;14.420;2022-12-26T00:26:30;99398.91;;;9.48;63.25
67740;BME280;54536;50.090;14.420;2022-12-26T00:28:57;99393.91;;;9.45;62.89
67740;BME280;54536;50.090;14.420;2022-12-26T00:31:42;99399.16;;;9.45;63.51
67740;BME280;54536;50.090;14.420;2022-12-26T00:34:09;99404.56;;;9.43;63.22
67740;BME280;54536;50.090;14.420;2022-12-26T00:36:37;99411.97;;;9.38;63.08
67740;BME280;54536;50.090;14.420;2022-12-26T00:39:03;99430.75;;;9.33;62.91
67740;BME280;54536;50.090;14.420;2022-12-26T00:41:30;99423.13;;;9.30;62.73
67740;BME280;54536;50.090;14.420;2022-12-26T00:43:57;99416.66;;;9.34;63.29
67740;BME280;54536;50.090;14.420;2022-12-26T00:46:24;99401.09;;;9.22;62.91
67740;BME280;54536;50.090;14.420;2022-12-26T00:48:52;99409.28;;;9.07;63.69
67740;BME280;54536;50.090;14.420;2022-12-26T00:51:18;99401.59;;;8.95;63.92
67740;BME280;54536;50.090;14.420;2022-12-26T00:53:45;99407.06;;;8.91;64.54
67740;BME280;54536;50.090;14.420;2022-12-26T00:56:12;99399.63;;;9.08;64.61
67740;BME280;54536;50.090;14.420;2022-12-26T00:58:39;99404.19;;;9.06;64.40
67740;BME280;54536;50.090;14.420;2022-12-26T01:01:11;99416.66;;;9.13;63.75
67740;BME280;54536;50.090;14.420;2022-12-26T01:03:38;99411.09;;;8.96;63.82
67740;BME280;54536;50.090;14.420;2022-12-26T01:06:05;99398.53;;;9.10;64.28
67740;BME280;54536;50.090;14.420;2022-12-26T01:08:32;99390.91;;;9.07;63.88
67740;BME280;54536;50.090;14.420;2022-12-26T01:11:07;99392.25;;;9.02;63.98
67740;BME280;54536;50.090;14.420;2022-12-26T01:13:35;99391.31;;;9.03;63.62
67740;BME280;54536;50.090;14.420;2022-12-26T01:16:04;99391.63;;;9.09;64.14
67740;BME280;54536;50.090;14.420;2022-12-26T01:18:31;99396.31;;;9.06;64.00
67740;BME280;54536;50.090;14.420;2022-12-26T01:21:09;99382.34;;;9.05;63.86
67740;BME280;54536;50.090;14.420;2022-12-26T01:23:36;99380.44;;;9.07;64.13
67740;BME280;54536;50.090;14.420;2022-12-26T01:26:08;99386.25;;;9.11;64.39
67740;BME280;54536;50.090;14.420;2022-12-26T01:28:35;99385.41;;;9.10;63.78
67740;BME280;54536;50.090;14.420;2022-12-26T01:31:03;99395.19;;;9.08;63.71
67740;BME280;54536;50.090;14.420;2022-12-26T01:33:31;99379.66;;;9.17;63.98
67740;BME280;54536;50.090;14.420;2022-12-26T01:36:00;99387.41;;;8.97;63.91
67740;BME280;54536;50.090;14.420;2022-12-26T01:38:27;99389.69;;;9.11;63.28
67740;BME280;54536;50.090;14.420;2022-12-26T01:40:53;99383.13;;;9.17;64.22
67740;BME280;54536;50.090;14.420;2022-12-26T01:46:41;99404.94;;;9.18;63.57
67740;BME280;54536;50.090;14.420;2022-12-26T01:49:17;99399.00;;;9.16;63.68
67740;BME280;54536;50.090;14.420;2022-12-26T01:51:50;99411.59;;;9.22;63.82
67740;BME280;54536;50.090;14.420;2022-12-26T01:54:21;99407.06;;;9.24;64.14
67740;BME280;54536;50.090;14.420;2022-12-26T01:56:55;99396.63;;;9.12;64.39
67740;BME280;54536;50.090;14.420;2022-12-26T01:59:38;99391.16;;;9.25;64.17
67740;BME280;54536;50.090;14.420;2022-12-26T02:02:06;99381.91;;;9.21;64.32
67740;BME280;54536;50.090;14.420;2022-12-26T02:04:39;99376.47;;;9.13;64.09
67740;BME280;54536;50.090;14.420;2022-12-26T02:07:33;99378.50;;;9.30;64.13
67740;BME280;54536;50.090;14.420;2022-12-26T02:10:01;99366.63;;;9.26;63.51
67740;BME280;54536;50.090;14.420;2022-12-26T02:12:34;99363.53;;;9.21;64.12
67740;BME280;54536;50.090;14.420;2022-12-26T02:15:03;99356.56;;;9.31;63.71
67740;BME280;54536;50.090;14.420;2022-12-26T02:17:30;99350.63;;;9.29;63.72
67740;BME280;54536;50.090;14.420;2022-12-26T02:22:42;99349.91;;;9.48;63.86
67740;BME280;54536;50.090;14.420;2022-12-26T02:31:55;99368.22;;;9.38;64.31
67740;BME280;54536;50.090;14.420;2022-12-26T02:34:44;99358.28;;;9.42;63.84
67740;BME280;54536;50.090;14.420;2022-12-26T02:42:42;99333.34;;;9.57;64.64
67740;BME280;54536;50.090;14.420;2022-12-26T02:51:06;99343.28;;;9.84;64.65
67740;BME280;54536;50.090;14.420;2022-12-26T02:57:08;99343.16;;;9.96;64.10
67740;BME280;54536;50.090;14.420;2022-12-26T03:00:07;99333.06;;;9.91;64.61
67740;BME280;54536;50.090;14.420;2022-12-26T03:06:02;99335.47;;;10.23;63.00
67740;BME280;54536;50.090;14.420;2022-12-26T03:11:44;99329.94;;;10.17;64.58
67740;BME280;54536;50.090;14.420;2022-12-26T03:14:46;99330.69;;;10.28;63.79
67740;BME280;54536;50.090;14.420;2022-12-26T03:17:25;99323.91;;;10.26;64.58
67740;BME280;54536;50.090;14.420;2022-12-26T03:20:08;99331.78;;;10.26;63.80
67740;BME280;54536;50.090;14.420;2022-12-26T03:28:40;99325.72;;;10.35;63.66
67740;BME280;54536;50.090;14.420;2022-12-26T03:31:11;99328.22;;;10.37;63.72
67740;BME280;54536;50.090;14.420;2022-12-26T03:33:44;99333.56;;;10.25;63.57
67740;BME280;54536;50.090;14.420;2022-12-26T03:40:10;99337.81;;;10.17;63.31
67740;BME280;54536;50.090;14.420;2022-12-26T03:49:44;99314.03;;;10.08;64.72
67740;BME280;54536;50.090;14.420;2022-12-26T03:56:05;99333.69;;;10.14;63.42
67740;BME280;54536;50.090;14.420;2022-12-26T04:01:55;99337.25;;;10.03;63.71
67740;BME280;54536;50.090;14.420;2022-12-26T04:04:45;99334.50;;;10.15;64.27
67740;BME280;54536;50.090;14.420;2022-12-26T04:07:39;99324.84;;;10.15;64.16
67740;BME280;54536;50.090;14.420;2022-12-26T04:10:37;99318.88;;;10.13;64.54
67740;BME280;54536;50.090;14.420;2022-12-26T04:17:00;99309.91;;;10.25;64.47
67740;BME280;54536;50.090;14.420;2022-12-26T04:20:09;99310.13;;;10.43;64.59
67740;BME280;54536;50.090;14.420;2022-12-26T04:22:57;99316.31;;;10.42;64.20
67740;BME280;54536;50.090;14.420;2022-12-26T04:26:28;99311.78;;;10.54;63.91
67740;BME280;54536;50.090;14.420;2022-12-26T04:29:10;99308.59;;;10.60;63.83
67740;BME280;54536;50.090;14.420;2022-12-26T04:37:57;99341.81;;;10.71;63.39
67740;BME280;54536;50.090;14.420;2022-12-26T04:40:48;99338.34;;;10.70;63.53
67740;BME280;54536;50.090;14.420;2022-12-26T04:43:37;99339.16;;;10.81;63.33
67740;BME280;54536;50.090;14.420;2022-12-26T04:46:24;99328.94;;;10.68;62.99
67740;BME280;54536;50.090;14.420;2022-12-26T04:49:03;99323.81;;;10.66;63.65
67740;BME280;54536;50.090;14.420;2022-12-26T04:51:49;99331.56;;;10.77;63.05
67740;BME280;54536;50.090;14.420;2022-12-26T04:54:18;99340.44;;;10.76;63.41
67740;BME280;54536;50.090;14.420;2022-12-26T04:56:56;99339.03;;;10.72;63.33
67740;BME280;54536;50.090;14.420;2022-12-26T04:59:28;99349.25;;;10.66;64.07
67740;BME280;54536;50.090;14.420;2022-12-26T05:01:55;99347.88;;;10.71;63.79
67740;BME280;54536;50.090;14.420;2022-12-26T05:04:41;99344.59;;;10.79;63.87
67740;BME280;54536;50.090;14.420;2022-12-26T05:07:32;99331.28;;;10.81;63.95
67740;BME280;54536;50.090;14.420;2022-12-26T05:10:27;99347.75;;;10.92;63.91
67740;BME280;54536;50.090;14.420;2022-12-26T05:12:54;99350.50;;;10.91;63.52
67740;BME280;54536;50.090;14.420;2022-12-26T05:15:26;99348.31;;;10.96;63.73
67740;BME280;54536;50.090;14.420;2022-12-26T05:17:54;99361.03;;;10.91;63.61
67740;BME280;54536;50.090;14.420;2022-12-26T05:20:39;99359.50;;;10.88;63.58
67740;BME280;54536;50.090;14.420;2022-12-26T05:23:29;99363.81;;;10.89;63.34
67740;BME280;54536;50.090;14.420;2022-12-26T05:26:19;99349.25;;;10.95;63.11
67740;BME280;54536;50.090;14.420;2022-12-26T05:29:06;99347.59;;;10.94;63.23
67740;BME280;54536;50.090;14.420;2022-12-26T05:31:38;99349.41;;;11.03;63.24
67740;BME280;54536;50.090;14.420;2022-12-26T05:34:05;99354.50;;;11.05;63.57
67740;BME280;54536;50.090;14.420;2022-12-26T05:36:44;99356.19;;;11.15;63.27
67740;BME280;54536;50.090;14.420;2022-12-26T05:39:18;99360.03;;;11.21;63.04
67740;BME280;54536;50.090;14.420;2022-12-26T05:41:46;99357.94;;;11.24;62.46
67740;BME280;54536;50.090;14.420;2022-12-26T05:44:13;99350.31;;;11.21;62.91
67740;BME280;54536;50.090;14.420;2022-12-26T05:46:41;99348.94;;;11.27;62.41
67740;BME280;54536;50.090;14.420;2022-12-26T05:49:08;99342.13;;;11.34;62.25
67740;BME280;54536;50.090;14.420;2022-12-26T05:51:46;99346.72;;;11.32;61.72
67740;BME280;54536;50.090;14.420;2022-12-26T05:54:12;99342.56;;;11.30;61.81
67740;BME280;54536;50.090;14.420;2022-12-26T05:56:44;99344.13;;;11.22;62.69
67740;BME280;54536;50.090;14.420;2022-12-26T05:59:13;99342.16;;;11.15;62.77
67740;BME280;54536;50.090;14.420;2022-12-26T06:01:39;99345.06;;;11.21;62.61
67740;BME280;54536;50.090;14.420;2022-12-26T06:04:05;99348.00;;;11.28;62.52
67740;BME280;54536;50.090;14.420;2022-12-26T06:06:31;99339.25;;;11.28;62.46
67740;BME280;54536;50.090;14.420;2022-12-26T06:09:04;99339.41;;;11.26;62.92
67740;BME280;54536;50.090;14.420;2022-12-26T06:11:30;99341.03;;;11.27;62.12
67740;BME280;54536;50.090;14.420;2022-12-26T06:13:57;99348.13;;;11.27;62.63
67740;BME280;54536;50.090;14.420;2022-12-26T06:16:30;99327.22;;;11.25;62.92
67740;BME280;54536;50.090;14.420;2022-12-26T06:18:57;99326.63;;;11.31;62.74
67740;BME280;54536;50.090;14.420;2022-12-26T06:21:29;99328.84;;;11.36;62.03
67740;BME280;54536;50.090;14.420;2022-12-26T06:23:55;99320.66;;;11.39;61.80
67740;BME280;54536;50.090;14.420;2022-12-26T06:26:21;99324.94;;;11.40;62.38
67740;BME280;54536;50.090;14.420;2022-12-26T06:28:48;99310.53;;;11.34;62.40
67740;BME280;54536;50.090;14.420;2022-12-26T06:31:18;99313.47;;;11.31;62.76
67740;BME280;54536;50.090;14.420;2022-12-26T06:33:48;99310.53;;;11.34;62.57
67740;BME280;54536;50.090;14.420;2022-12-26T06:36:17;99316.22;;;11.39;62.58
67740;BME280;54536;50.090;14.420;2022-12-26T06:38:44;99304.72;;;11.40;61.98
67740;BME280;54536;50.090;14.420;2022-12-26T06:41:13;99297.84;;;11.20;62.36
67740;BME280;54536;50.090;14.420;2022-12-26T06:43:40;99310.03;;;11.21;62.29
67740;BME280;54536;50.090;14.420;2022-12-26T06:46:12;99319.03;;;11.28;62.65
67740;BME280;54536;50.090;14.420;2022-12-26T06:48:40;99319.41;;;11.33;62.50
67740;BME280;54536;50.090;14.420;2022-12-26T06:51:12;99329.81;;;11.35;62.07
67740;BME280;54536;50.090;14.420;2022-12-26T06:53:39;99322.88;;;11.34;61.99
67740;BME280;54536;50.090;14.420;2022-12-26T06:56:11;99328.41;;;11.40;61.76
67740;BME280;54536;50.090;14.420;2022-12-26T06:58:38;99322.34;;;11.30;62.33
67740;BME280;54536;50.090;14.420;2022-12-26T07:01:05;99327.28;;;11.43;61.79
67740;BME280;54536;50.090;14.420;2022-12-26T07:03:33;99323.84;;;11.42;61.85
67740;BME280;54536;50.090;14.420;2022-12-26T07:06:29;99322.44;;;11.48;61.72
67740;BME280;54536;50.090;14.420;2022-12-26T07:09:03;99323.38;;;11.47;61.46
67740;BME280;54536;50.090;14.420;2022-12-26T07:11:32;99321.91;;;11.44;62.08
67740;BME280;54536;50.090;14.420;2022-12-26T07:13:59;99315.50;;;11.47;61.54
67740;BME280;54536;50.090;14.420;2022-12-26T07:16:36;99301.88;;;11.61;61.69
67740;BME280;54536;50.090;14.420;2022-12-26T07:19:15;99299.66;;;11.57;61.30
67740;BME280;54536;50.090;14.420;2022-12-26T07:21:42;99300.88;;;11.62;61.84
67740;BME280;54536;50.090;14.420;2022-12-26T07:24:20;99295.88;;;11.69;61.41
67740;BME280;54536;50.090;14.420;2022-12-26T07:26:47;99288.94;;;11.68;61.57
67740;BME280;54536;50.090;14.420;2022-12-26T07:29:15;99312.38;;;11.71;60.90
67740;BME280;54536;50.090;14.420;2022-12-26T07:31:41;99306.25;;;11.70;60.97
67740;BME280;54536;50.090;14.420;2022-12-26T07:34:08;99315.28;;;11.68;61.61
67740;BME280;54536;50.090;14.420;2022-12-26T07:36:34;99314.84;;;11.72;60.91
67740;BME280;54536;50.090;14.420;2022-12-26T07:39:01;99319.25;;;11.82;61.07
67740;BME280;54536;50.090;14.420;2022-12-26T07:41:29;99319.09;;;11.83;60.60
67740;BME280;54536;50.090;14.420;2022-12-26T07:44:15;99315.78;;;11.91;60.35
67740;BME280;54536;50.090;14.420;2022-12-26T07:46:41;99320.06;;;11.92;60.49
67740;BME280;54536;50.090;14.420;2022-12-26T07:49:10;99327.97;;;11.92;60.46
67740;BME280;54536;50.090;14.420;2022-12-26T07:51:37;99327.75;;;12.03;60.28
67740;BME280;54536;50.090;14.420;2022-12-26T07:54:16;99335.41;;;11.97;60.10
67740;BME280;54536;50.090;14.420;2022-12-26T07:56:42;99331.78;;;12.07;60.06
67740;BME280;54536;50.090;14.420;2022-12-26T07:59:15;99331.00;;;11.97;60.16
67740;BME280;54536;50.090;14.420;2022-12-26T08:01:42;99335.81;;;12.02;60.43
67740;BME280;54536;50.090;14.420;2022-12-26T08:04:10;99335.75;;;12.11;60.01
67740;BME280;54536;50.090;14.420;2022-12-26T08:06:37;99336.47;;;12.13;60.25
67740;BME280;54536;50.090;14.420;2022-12-26T08:09:04;99333.81;;;12.13;59.52
67740;BME280;54536;50.090;14.420;2022-12-26T08:11:33;99332.06;;;12.04;59.78
67740;BME280;54536;50.090;14.420;2022-12-26T08:14:00;99328.31;;;12.07;59.90
67740;BME280;54536;50.090;14.420;2022-12-26T08:16:27;99337.69;;;12.09;60.07
67740;BME280;54536;50.090;14.420;2022-12-26T08:18:53;99343.84;;;12.10;59.39
67740;BME280;54536;50.090;14.420;2022-12-26T08:21:20;99336.06;;;12.08;59.90
67740;BME280;54536;50.090;14.420;2022-12-26T08:23:46;99345.63;;;12.09;59.45
67740;BME280;54536;50.090;14.420;2022-12-26T08:26:13;99350.75;;;12.11;59.79
67740;BME280;54536;50.090;14.420;2022-12-26T08:28:46;99356.69;;;12.13;59.86
67740;BME280;54536;50.090;14.420;2022-12-26T08:31:19;99366.28;;;12.14;59.62
67740;BME280;54536;50.090;14.420;2022-12-26T08:33:46;99366.41;;;12.12;59.17
67740;BME280;54536;50.090;14.420;2022-12-26T08:36:13;99364.72;;;12.21;59.05
67740;BME280;54536;50.090;14.420;2022-12-26T08:38:42;99359.13;;;12.24;59.07
67740;BME280;54536;50.090;14.420;2022-12-26T08:41:08;99367.59;;;12.28;59.20
67740;BME280;54536;50.090;14.420;2022-12-26T08:43:35;99354.22;;;12.29;59.19
67740;BME280;54536;50.090;14.420;2022-12-26T08:46:09;99353.69;;;12.26;59.41
67740;BME280;54536;50.090;14.420;2022-12-26T08:48:38;99359.66;;;12.28;58.53
67740;BME280;54536;50.090;14.420;2022-12-26T08:51:17;99365.00;;;12.36;58.63
67740;BME280;54536;50.090;14.420;2022-12-26T08:53:44;99369.22;;;12.29;58.91
67740;BME280;54536;50.090;14.420;2022-12-26T08:56:15;99363.66;;;12.32;59.03
67740;BME280;54536;50.090;14.420;2022-12-26T08:58:42;99371.81;;;12.38;58.76
67740;BME280;54536;50.090;14.420;2022-12-26T09:01:12;99369.16;;;12.38;58.89
67740;BME280;54536;50.090;14.420;2022-12-26T09:04:04;99378.75;;;12.39;58.46
67740;BME280;54536;50.090;14.420;2022-12-26T09:06:34;99378.75;;;12.39;58.92
67740;BME280;54536;50.090;14.420;2022-12-26T09:09:03;99380.00;;;12.35;59.13
67740;BME280;54536;50.090;14.420;2022-12-26T09:11:29;99372.19;;;12.44;58.33
67740;BME280;54536;50.090;14.420;2022-12-26T09:13:58;99385.91;;;12.47;58.44
67740;BME280;54536;50.090;14.420;2022-12-26T09:16:28;99385.16;;;12.55;58.24
67740;BME280;54536;50.090;14.420;2022-12-26T09:18:58;99388.19;;;12.60;58.25
67740;BME280;54536;50.090;14.420;2022-12-26T09:21:26;99389.03;;;12.60;58.30
67740;BME280;54536;50.090;14.420;2022-12-26T09:23:57;99392.41;;;12.71;58.08
67740;BME280;54536;50.090;14.420;2022-12-26T09:26:24;99386.78;;;12.65;57.67
67740;BME280;54536;50.090;14.420;2022-12-26T09:28:51;99394.28;;;12.78;59.31
67740;BME280;54536;50.090;14.420;2022-12-26T09:31:20;99383.97;;;12.85;58.62
67740;BME280;54536;50.090;14.420;2022-12-26T09:33:48;99372.00;;;12.91;58.40
67740;BME280;54536;50.090;14.420;2022-12-26T09:36:28;99383.75;;;12.96;58.09
67740;BME280;54536;50.090;14.420;2022-12-26T09:38:56;99377.19;;;13.00;58.03
67740;BME280;54536;50.090;14.420;2022-12-26T09:44:42;99383.75;;;12.96;57.37
67740;BME280;54536;50.090;14.420;2022-12-26T09:50:15;99384.75;;;12.95;57.86
67740;BME280;54536;50.090;14.420;2022-12-26T09:52:47;99387.09;;;12.98;57.05
67740;BME280;54536;50.090;14.420;2022-12-26T09:55:26;99391.44;;;12.89;57.36
67740;BME280;54536;50.090;14.420;2022-12-26T09:57:58;99377.56;;;12.87;57.51
67740;BME280;54536;50.090;14.420;2022-12-26T10:00:37;99376.31;;;12.92;57.89
67740;BME280;54536;50.090;14.420;2022-12-26T10:03:10;99370.47;;;12.88;58.13
67740;BME280;54536;50.090;14.420;2022-12-26T10:05:54;99361.81;;;12.96;57.97
67740;BME280;54536;50.090;14.420;2022-12-26T10:11:08;99331.22;;;13.11;57.71
67740;BME280;54536;50.090;14.420;2022-12-26T10:13:58;99337.06;;;13.15;57.71
67740;BME280;54536;50.090;14.420;2022-12-26T10:16:53;99351.59;;;13.19;57.05
67740;BME280;54536;50.090;14.420;2022-12-26T10:24:46;99334.34;;;13.24;57.58
67740;BME280;54536;50.090;14.420;2022-12-26T10:27:17;99329.66;;;13.18;57.53
67740;BME280;54536;50.090;14.420;2022-12-26T10:29:54;99335.84;;;13.27;57.78
67740;BME280;54536;50.090;14.420;2022-12-26T10:32:32;99345.75;;;13.25;57.54
67740;BME280;54536;50.090;14.420;2022-12-26T10:35:34;99335.59;;;13.38;57.90
67740;BME280;54536;50.090;14.420;2022-12-26T10:38:05;99342.59;;;13.47;57.87
67740;BME280;54536;50.090;14.420;2022-12-26T10:40:42;99331.38;;;13.53;58.73
67740;BME280;54536;50.090;14.420;2022-12-26T10:43:19;99334.56;;;13.57;57.58
67740;BME280;54536;50.090;14.420;2022-12-26T10:45:56;99332.63;;;13.67;56.94
67740;BME280;54536;50.090;14.420;2022-12-26T10:48:28;99335.66;;;13.80;57.54
67740;BME280;54536;50.090;14.420;2022-12-26T10:50:55;99339.13;;;13.81;57.54
67740;BME280;54536;50.090;14.420;2022-12-26T10:53:21;99339.94;;;13.81;56.53
67740;BME280;54536;50.090;14.420;2022-12-26T10:55:47;99336.81;;;13.86;57.03
67740;BME280;54536;50.090;14.420;2022-12-26T10:58:21;99330.75;;;13.94;56.70
67740;BME280;54536;50.090;14.420;2022-12-26T11:00:49;99338.88;;;14.09;56.74
67740;BME280;54536;50.090;14.420;2022-12-26T11:03:17;99333.78;;;14.07;55.64
67740;BME280;54536;50.090;14.420;2022-12-26T11:05:55;99327.34;;;14.10;56.33
67740;BME280;54536;50.090;14.420;2022-12-26T11:11:12;99327.38;;;14.26;56.84
67740;BME280;54536;50.090;14.420;2022-12-26T11:13:45;99325.56;;;14.35;56.19
67740;BME280;54536;50.090;14.420;2022-12-26T11:16:26;99315.81;;;14.35;56.09
67740;BME280;54536;50.090;14.420;2022-12-26T11:18:55;99311.88;;;14.47;57.09
67740;BME280;54536;50.090;14.420;2022-12-26T11:21:25;99310.22;;;14.46;56.12
67740;BME280;54536;50.090;14.420;2022-12-26T11:24:09;99322.03;;;14.52;57.02
67740;BME280;54536;50.090;14.420;2022-12-26T11:26:37;99315.41;;;14.56;56.70
67740;BME280;54536;50.090;14.420;2022-12-26T11:29:27;99322.84;;;14.52;56.58
67740;BME280;54536;50.090;14.420;2022-12-26T11:31:58;99315.06;;;14.51;57.18
67740;BME280;54536;50.090;14.420;2022-12-26T11:34:38;99313.91;;;14.54;57.03
67740;BME280;54536;50.090;14.420;2022-12-26T11:37:32;99315.06;;;14.51;56.73
67740;BME280;54536;50.090;14.420;2022-12-26T11:40:02;99321.13;;;14.43;57.12
67740;BME280;54536;50.090;14.420;2022-12-26T11:42:29;99310.69;;;14.34;57.87
67740;BME280;54536;50.090;14.420;2022-12-26T11:45:00;99315.66;;;14.37;58.17
67740;BME280;54536;50.090;14.420;2022-12-26T11:47:34;99310.88;;;14.48;57.78
67740;BME280;54536;50.090;14.420;2022-12-26T11:50:07;99310.06;;;14.48;58.17
67740;BME280;54536;50.090;14.420;2022-12-26T11:58:19;99311.59;;;14.59;58.96
67740;BME280;54536;50.090;14.420;2022-12-26T12:15:08;99306.97;;;14.61;56.65
67740;BME280;54536;50.090;14.420;2022-12-26T12:18:08;99313.41;;;14.58;57.42
67740;BME280;54536;50.090;14.420;2022-12-26T12:37:28;99316.53;;;14.45;57.61
67740;BME280;54536;50.090;14.420;2022-12-26T12:43:27;99312.75;;;14.56;58.42
67740;BME280;54536;50.090;14.420;2022-12-26T12:46:25;99297.34;;;14.51;58.39
67740;BME280;54536;50.090;14.420;2022-12-26T12:52:17;99297.66;;;14.40;60.44
67740;BME280;54536;50.090;14.420;2022-12-26T13:00:19;99278.78;;;14.35;59.85
67740;BME280;54536;50.090;14.420;2022-12-26T13:08:56;99333.50;;;14.35;60.01
67740;BME280;54536;50.090;14.420;2022-12-26T13:11:37;99322.78;;;14.36;61.13
67740;BME280;54536;50.090;14.420;2022-12-26T13:14:18;99311.47;;;14.18;60.45
67740;BME280;54536;50.090;14.420;2022-12-26T13:16:51;99303.25;;;14.37;62.07
67740;BME280;54536;50.090;14.420;2022-12-26T13:19:25;99292.53;;;14.39;60.46
67740;BME280;54536;50.090;14.420;2022-12-26T13:21:56;99289.03;;;14.30;60.28
67740;BME280;54536;50.090;14.420;2022-12-26T13:24:40;99299.75;;;14.20;60.43
67740;BME280;54536;50.090;14.420;2022-12-26T13:29:40;99305.38;;;14.25;59.93
67740;BME280;54536;50.090;14.420;2022-12-26T13:32:23;99281.25;;;14.20;60.05
67740;BME280;54536;50.090;14.420;2022-12-26T13:34:53;99271.63;;;14.11;60.45
67740;BME280;54536;50.090;14.420;2022-12-26T13:40:01;99225.69;;;14.04;60.78
67740;BME280;54536;50.090;14.420;2022-12-26T13:42:39;99221.72;;;14.00;60.22
67740;BME280;54536;50.090;14.420;2022-12-26T13:50:54;99314.44;;;14.07;60.14
67740;BME280;54536;50.090;14.420;2022-12-26T13:53:26;99326.66;;;14.08;60.07
67740;BME280;54536;50.090;14.420;2022-12-26T14:06:44;99317.53;;;13.94;60.24
67740;BME280;54536;50.090;14.420;2022-12-26T14:15:15;99316.22;;;13.98;59.74
67740;BME280;54536;50.090;14.420;2022-12-26T14:23:35;99315.34;;;13.89;59.42
67740;BME280;54536;50.090;14.420;2022-12-26T14:26:56;99318.28;;;13.78;59.69
67740;BME280;54536;50.090;14.420;2022-12-26T14:29:20;99330.00;;;13.75;59.95
67740;BME280;54536;50.090;14.420;2022-12-26T14:32:05;99337.94;;;13.75;59.66
67740;BME280;54536;50.090;14.420;2022-12-26T14:37:29;99325.34;;;13.69;60.31
67740;BME280;54536;50.090;14.420;2022-12-26T14:43:05;99345.34;;;13.72;59.73
67740;BME280;54536;50.090;14.420;2022-12-26T14:50:54;99362.00;;;13.64;60.85
67740;BME280;54536;50.090;14.420;2022-12-26T14:53:40;99374.22;;;13.65;60.57
67740;BME280;54536;50.090;14.420;2022-12-26T14:58:46;99375.72;;;13.68;59.97
67740;BME280;54536;50.090;14.420;2022-12-26T15:17:40;99374.09;;;13.75;59.87
67740;BME280;54536;50.090;14.420;2022-12-26T15:29:11;99370.25;;;13.61;60.18
67740;BME280;54536;50.090;14.420;2022-12-26T15:39:57;99371.88;;;13.62;60.85
67740;BME280;54536;50.090;14.420;2022-12-26T15:59:47;99398.06;;;13.47;61.16
67740;BME280;54536;50.090;14.420;2022-12-26T16:01:45;99396.25;;;13.48;61.08
67740;BME280;54536;50.090;14.420;2022-12-26T16:04:27;99385.00;;;13.46;61.10
67740;BME280;54536;50.090;14.420;2022-12-26T16:09:43;99382.50;;;13.44;61.34
67740;BME280;54536;50.090;14.420;2022-12-26T16:17:37;99376.81;;;13.31;61.56
67740;BME280;54536;50.090;14.420;2022-12-26T16:20:29;99381.63;;;13.35;61.60
67740;BME280;54536;50.090;14.420;2022-12-26T16:23:19;99384.78;;;13.39;61.04
67740;BME280;54536;50.090;14.420;2022-12-26T16:25:54;99381.44;;;13.55;61.18
67740;BME280;54536;50.090;14.420;2022-12-26T16:31:01;99378.06;;;13.45;60.87
67740;BME280;54536;50.090;14.420;2022-12-26T16:33:39;99384.78;;;13.39;60.30
67740;BME280;54536;50.090;14.420;2022-12-26T16:36:09;99385.09;;;13.36;60.71
67740;BME280;54536;50.090;14.420;2022-12-26T16:38:36;99392.97;;;13.28;61.06
67740;BME280;54536;50.090;14.420;2022-12-26T16:41:26;99381.66;;;13.44;60.75
67740;BME280;54536;50.090;14.420;2022-12-26T16:43:55;99382.50;;;13.44;59.91
67740;BME280;54536;50.090;14.420;2022-12-26T16:46:26;99391.66;;;13.32;60.73
67740;BME280;54536;50.090;14.420;2022-12-26T16:48:59;99398.06;;;13.29;60.74
67740;BME280;54536;50.090;14.420;2022-12-26T16:56:50;99408.28;;;13.24;61.37
67740;BME280;54536;50.090;14.420;2022-12-26T16:59:22;99408.69;;;13.20;60.67
67740;BME280;54536;50.090;14.420;2022-12-26T17:01:54;99404.50;;;13.27;60.64
67740;BME280;54536;50.090;14.420;2022-12-26T17:04:24;99401.59;;;13.20;61.51
67740;BME280;54536;50.090;14.420;2022-12-26T17:07:05;99404.94;;;13.22;60.98
67740;BME280;54536;50.090;14.420;2022-12-26T17:09:42;99412.69;;;13.24;61.20
67740;BME280;54536;50.090;14.420;2022-12-26T17:14:48;99413.47;;;13.16;61.76
67740;BME280;54536;50.090;14.420;2022-12-26T17:19:49;99410.75;;;13.08;61.04
67740;BME280;54536;50.090;14.420;2022-12-26T17:22:35;99418.13;;;13.04;61.65
67740;BME280;54536;50.090;14.420;2022-12-26T17:27:46;99422.19;;;13.17;61.55
67740;BME280;54536;50.090;14.420;2022-12-26T17:30:23;99410.50;;;13.19;61.62
67740;BME280;54536;50.090;14.420;2022-12-26T17:32:51;99425.66;;;13.17;61.22
67740;BME280;54536;50.090;14.420;2022-12-26T17:35:22;99425.47;;;13.28;60.45
67740;BME280;54536;50.090;14.420;2022-12-26T17:37:58;99416.03;;;13.26;61.14
67740;BME280;54536;50.090;14.420;2022-12-26T17:40:32;99413.91;;;13.29;60.76
67740;BME280;54536;50.090;14.420;2022-12-26T17:43:05;99410.34;;;13.21;61.05
67740;BME280;54536;50.090;14.420;2022-12-26T17:45:32;99410.75;;;13.26;60.59
67740;BME280;54536;50.090;14.420;2022-12-26T17:47:59;99408.63;;;13.29;61.22